createdAt,value
2023-04-21T00:00:33.870Z,99157.77
2023-04-21T00:03:03.850Z,99159.91
2023-04-21T00:05:33.477Z,99158.77
2023-04-21T00:08:02.005Z,99158.41
2023-04-21T00:10:30.909Z,99151.59
2023-04-21T00:12:59.218Z,99150.38
2023-04-21T00:15:27.608Z,99150.79
2023-04-21T00:17:56.112Z,99148.12
2023-04-21T00:20:27.155Z,99144.10
2023-04-21T00:22:57.297Z,99140.60
2023-04-21T00:25:26.450Z,99141.52
2023-04-21T00:27:55.535Z,99143.54
2023-04-21T00:30:23.878Z,99145.76
2023-04-21T00:32:52.124Z,99135.79
2023-04-21T00:35:20.512Z,99124.21
2023-04-21T00:37:50.339Z,99125.80
2023-04-21T00:40:18.777Z,99127.71
2023-04-21T00:42:47.468Z,99131.26
2023-04-21T00:45:16.822Z,99130.02
2023-04-21T00:47:45.275Z,99131.61
2023-04-21T00:50:13.647Z,99128.50
2023-04-21T00:52:44.707Z,99125.60
2023-04-21T00:55:13.083Z,99122.71
2023-04-21T00:57:42.125Z,99121.56
2023-04-21T01:00:11.027Z,99115.96
2023-04-21T01:02:41.707Z,99108.45
2023-04-21T01:05:10.724Z,99107.77
2023-04-21T01:07:40.310Z,99106.30
2023-04-21T01:10:09.130Z,99102.91
2023-04-21T01:12:47.926Z,99101.71
2023-04-21T01:15:18.125Z,99104.29
2023-04-21T01:17:46.502Z,99111.50
2023-04-21T01:20:16.191Z,99109.33
2023-04-21T01:22:47.366Z,99105.61
2023-04-21T01:25:17.827Z,99106.13
2023-04-21T01:27:46.182Z,99103.39
2023-04-21T01:30:14.512Z,99103.73
2023-04-21T01:32:44.040Z,99103.76
2023-04-21T01:35:12.552Z,99104.98
2023-04-21T01:37:41.026Z,99102.53
2023-04-21T01:40:10.344Z,99101.38
2023-04-21T01:42:43.406Z,99100.88
2023-04-21T01:45:12.776Z,99100.88
2023-04-21T01:47:41.672Z,99100.48
2023-04-21T01:50:10.811Z,99105.52
2023-04-21T01:52:39.935Z,99110.69
2023-04-21T01:55:08.731Z,99116.59
2023-04-21T01:57:37.108Z,99121.55
2023-04-21T02:00:07.188Z,99122.84
2023-04-21T02:02:45.104Z,99124.95
2023-04-21T02:05:14.904Z,99121.78
2023-04-21T02:07:43.608Z,99119.49
2023-04-21T02:10:13.157Z,99115.25
2023-04-21T02:12:44.422Z,99109.15
2023-04-21T02:15:12.737Z,99107.52
2023-04-21T02:17:43.271Z,99108.31
2023-04-21T02:20:12.573Z,99101.14
2023-04-21T02:22:41.393Z,99096.48
2023-04-21T02:25:10.243Z,99090.56
2023-04-21T02:27:40.645Z,99089.23
2023-04-21T02:30:09.553Z,99086.17
2023-04-21T02:32:39.051Z,99085.35
2023-04-21T02:35:07.685Z,99086.13
2023-04-21T02:37:36.760Z,99088.63
2023-04-21T02:40:06.824Z,99088.65
2023-04-21T02:42:35.465Z,99091.65
2023-04-21T02:45:04.217Z,99091.13
2023-04-21T02:47:34.011Z,99094.88
2023-04-21T02:50:02.525Z,99094.70
2023-04-21T02:52:37.358Z,99094.95
2023-04-21T02:55:06.159Z,99095.08
2023-04-21T02:57:34.751Z,99091.16
2023-04-21T03:00:05.224Z,99088.68
2023-04-21T03:02:34.629Z,99088.33
2023-04-21T03:05:04.439Z,99084.45
2023-04-21T03:07:33.119Z,99081.45
2023-04-21T03:10:01.516Z,99077.09
2023-04-21T03:12:30.489Z,99074.27
2023-04-21T03:14:59.711Z,99073.77
2023-04-21T03:17:28.578Z,99076.67
2023-04-21T03:19:58.936Z,99078.73
2023-04-21T03:22:27.430Z,99083.90
2023-04-21T03:24:55.879Z,99094.08
2023-04-21T03:27:24.275Z,99089.70
2023-04-21T03:29:52.619Z,99094.08
2023-04-21T03:32:21.061Z,99097.20
2023-04-21T03:34:50.647Z,99096.02
2023-04-21T03:37:18.995Z,99094.56
2023-04-21T03:39:47.352Z,99090.32
2023-04-21T03:42:16.087Z,99089.68
2023-04-21T03:44:44.384Z,99084.44
2023-04-21T03:47:12.822Z,99080.52
2023-04-21T03:49:41.302Z,99083.25
2023-04-21T03:52:09.622Z,99084.08
2023-04-21T03:54:38.389Z,99086.90
2023-04-21T03:57:07.164Z,99087.02
2023-04-21T03:59:35.627Z,99091.59
2023-04-21T04:02:04.230Z,99095.20
2023-04-21T04:04:33.089Z,99093.39
2023-04-21T04:07:01.544Z,99089.76
2023-04-21T04:09:29.976Z,99088.60
2023-04-21T04:11:58.241Z,99089.65
2023-04-21T04:14:27.332Z,99090.85
2023-04-21T04:16:55.727Z,99092.05
2023-04-21T04:19:23.986Z,99086.34
2023-04-21T04:21:52.245Z,99083.73
2023-04-21T04:24:21.879Z,99082.36
2023-04-21T04:26:50.115Z,99082.27
2023-04-21T04:29:18.985Z,99076.04
2023-04-21T04:31:47.857Z,99075.36
2023-04-21T04:34:16.488Z,99073.84
2023-04-21T04:36:45.388Z,99077.83
2023-04-21T04:39:14.043Z,99074.61
2023-04-21T04:41:42.304Z,99073.17
2023-04-21T04:44:11.425Z,99074.30
2023-04-21T04:46:40.942Z,99075.75
2023-04-21T04:49:09.274Z,99074.52
2023-04-21T04:51:37.545Z,99078.80
2023-04-21T04:54:06.005Z,99079.13
2023-04-21T04:56:34.614Z,99077.56
2023-04-21T04:59:02.852Z,99076.41
2023-04-21T05:01:31.541Z,99078.07
2023-04-21T05:04:00.012Z,99073.73
2023-04-21T05:06:28.912Z,99069.47
2023-04-21T05:08:57.230Z,99074.52
2023-04-21T05:11:25.625Z,99074.11
2023-04-21T05:13:54.417Z,99072.73
2023-04-21T05:16:22.894Z,99070.15
2023-04-21T05:18:54.141Z,99070.50
2023-04-21T05:21:31.660Z,99066.86
2023-04-21T05:24:00.276Z,99067.88
2023-04-21T05:26:29.831Z,99065.70
2023-04-21T05:28:58.992Z,99068.13
2023-04-21T05:31:27.694Z,99067.59
2023-04-21T05:33:56.378Z,99066.36
2023-04-21T05:36:25.252Z,99061.61
2023-04-21T05:38:54.239Z,99059.77
2023-04-21T05:41:22.855Z,99060.02
2023-04-21T05:43:51.609Z,99062.19
2023-04-21T05:46:19.907Z,99061.58
2023-04-21T05:48:48.348Z,99059.26
2023-04-21T05:51:16.708Z,99062.03
2023-04-21T05:53:46.221Z,99062.39
2023-04-21T05:56:14.975Z,99062.23
2023-04-21T05:58:44.110Z,99054.67
2023-04-21T06:01:13.301Z,99057.16
2023-04-21T06:03:41.747Z,99059.11
2023-04-21T06:06:11.789Z,99058.20
2023-04-21T06:08:40.360Z,99058.84
2023-04-21T06:11:08.820Z,99059.61
2023-04-21T06:13:39.520Z,99057.02
2023-04-21T06:16:09.487Z,99051.98
2023-04-21T06:18:37.879Z,99051.73
2023-04-21T06:21:06.358Z,99054.09
2023-04-21T06:23:34.900Z,99053.38
2023-04-21T06:26:05.598Z,99054.90
2023-04-21T06:28:35.567Z,99052.91
2023-04-21T06:31:06.208Z,99051.50
2023-04-21T06:33:36.497Z,99052.02
2023-04-21T06:36:05.194Z,99050.69
2023-04-21T06:38:33.700Z,99048.16
2023-04-21T06:41:02.899Z,99049.04
2023-04-21T06:43:31.447Z,99050.50
2023-04-21T06:45:59.872Z,99047.69
2023-04-21T06:48:30.121Z,99049.61
2023-04-21T06:50:58.458Z,99045.52
2023-04-21T06:53:26.914Z,99046.65
2023-04-21T06:55:55.802Z,99046.45
2023-04-21T06:58:24.207Z,99051.29
2023-04-21T07:00:52.580Z,99052.21
2023-04-21T07:03:21.354Z,99049.31
2023-04-21T07:05:49.828Z,99053.11
2023-04-21T07:08:18.128Z,99051.16
2023-04-21T07:10:46.749Z,99053.14
2023-04-21T07:13:16.087Z,99053.14
2023-04-21T07:15:44.730Z,99051.27
2023-04-21T07:18:13.205Z,99053.72
2023-04-21T07:20:41.758Z,99050.48
2023-04-21T07:23:10.183Z,99051.83
2023-04-21T07:25:38.722Z,99047.61
2023-04-21T07:28:07.360Z,99047.86
2023-04-21T07:30:35.773Z,99045.27
2023-04-21T07:33:04.253Z,99041.41
2023-04-21T07:35:32.656Z,99045.54
2023-04-21T07:38:01.005Z,99041.86
2023-04-21T07:40:30.854Z,99041.33
2023-04-21T07:42:59.157Z,99042.77
2023-04-21T07:45:27.467Z,99045.23
2023-04-21T07:47:56.055Z,99047.85
2023-04-21T07:50:24.881Z,99047.27
2023-04-21T07:52:53.226Z,99045.01
2023-04-21T07:55:21.613Z,99047.20
2023-04-21T07:57:50.679Z,99046.53
2023-04-21T08:00:19.184Z,99050.04
2023-04-21T08:02:48.094Z,99052.59
2023-04-21T08:05:16.821Z,99049.67
2023-04-21T08:07:45.369Z,99049.27
2023-04-21T08:10:13.771Z,99054.63
2023-04-21T08:12:42.172Z,99051.59
2023-04-21T08:15:12.709Z,99051.63
2023-04-21T08:17:41.382Z,99049.36
2023-04-21T08:20:10.907Z,99048.70
2023-04-21T08:22:40.080Z,99046.44
2023-04-21T08:25:09.041Z,99042.23
2023-04-21T08:27:39.728Z,99042.79
2023-04-21T08:30:08.895Z,99041.15
2023-04-21T08:32:37.767Z,99044.99
2023-04-21T08:35:06.664Z,99045.70
2023-04-21T08:37:39.461Z,99047.48
2023-04-21T08:40:08.397Z,99048.05
2023-04-21T08:42:39.309Z,99047.38
2023-04-21T08:45:08.406Z,99044.38
2023-04-21T08:47:40.590Z,99044.16
2023-04-21T08:50:13.967Z,99041.68
2023-04-21T08:52:42.445Z,99044.84
2023-04-21T08:55:13.694Z,99046.36
2023-04-21T08:57:42.162Z,99045.34
2023-04-21T09:00:11.077Z,99044.55
2023-04-21T09:03:01.787Z,99044.20
2023-04-21T09:05:33.698Z,99045.71
2023-04-21T09:08:11.610Z,99046.25
2023-04-21T09:10:48.843Z,99048.28
2023-04-21T09:13:19.487Z,99048.86
2023-04-21T09:15:50.924Z,99049.98
2023-04-21T09:18:22.357Z,99047.77
2023-04-21T09:21:04.943Z,99048.39
2023-04-21T09:23:49.495Z,99043.80
2023-04-21T09:26:19.874Z,99045.84
2023-04-21T09:28:49.830Z,99041.73
2023-04-21T09:31:20.481Z,99041.73
2023-04-21T09:33:58.625Z,99037.84
2023-04-21T09:36:30.697Z,99040.64
2023-04-21T09:39:29.206Z,99040.36
2023-04-21T09:41:51.562Z,99033.93
2023-04-21T09:44:20.656Z,99039.83
2023-04-21T09:46:51.464Z,99035.65
2023-04-21T09:49:23.680Z,99034.83
2023-04-21T09:54:31.840Z,99031.27
2023-04-21T09:57:02.890Z,99028.89
2023-04-21T09:59:37.348Z,99030.36
2023-04-21T10:02:08.074Z,99030.30
2023-04-21T10:04:38.920Z,99034.86
2023-04-21T10:07:07.758Z,99034.48
2023-04-21T10:09:45.718Z,99032.91
2023-04-21T10:12:15.641Z,99031.91
2023-04-21T10:14:43.993Z,99030.94
2023-04-21T10:17:12.865Z,99028.16
2023-04-21T10:19:53.166Z,99022.33
2023-04-21T10:22:33.427Z,99022.36
2023-04-21T10:25:04.537Z,99019.91
2023-04-21T10:27:43.448Z,99019.42
2023-04-21T10:30:20.168Z,99017.04
2023-04-21T10:32:49.193Z,99021.25
2023-04-21T10:35:23.427Z,99022.16
2023-04-21T10:37:52.510Z,99028.93
2023-04-21T10:40:42.418Z,99029.88
2023-04-21T10:43:47.471Z,99030.23
2023-04-21T10:46:34.377Z,99035.04
2023-04-21T10:49:10.748Z,99035.67
2023-04-21T10:51:57.897Z,99035.52
2023-04-21T10:54:46.247Z,99034.60
2023-04-21T10:57:16.933Z,99038.21
2023-04-21T10:59:47.021Z,99043.88
2023-04-21T11:02:17.754Z,99038.41
2023-04-21T11:04:51.580Z,99032.02
2023-04-21T11:07:23.292Z,99029.95
2023-04-21T11:10:01.684Z,99030.84
2023-04-21T11:12:41.047Z,99035.35
2023-04-21T11:15:12.071Z,99037.58
2023-04-21T11:17:43.624Z,99031.83
2023-04-21T11:20:12.340Z,99035.92
2023-04-21T11:22:40.702Z,99031.64
2023-04-21T11:25:18.855Z,99032.30
2023-04-21T11:28:00.288Z,99034.18
2023-04-21T11:30:34.567Z,99031.13
2023-04-21T11:33:03.293Z,99031.31
2023-04-21T11:35:32.402Z,99034.73
2023-04-21T11:38:06.167Z,99029.64
2023-04-21T11:40:48.317Z,99027.23
2023-04-21T11:43:17.105Z,99023.16
2023-04-21T11:45:54.150Z,99024.04
2023-04-21T11:48:22.649Z,99027.02
2023-04-21T11:50:51.401Z,99027.70
2023-04-21T11:53:21.195Z,99024.56
2023-04-21T11:55:49.694Z,99022.41
2023-04-21T11:58:21.319Z,99025.81
2023-04-21T12:00:51.506Z,99023.92
2023-04-21T12:03:21.044Z,99020.85
2023-04-21T12:05:57.410Z,99022.88
2023-04-21T12:08:30.733Z,99019.13
2023-04-21T12:10:59.597Z,99023.53
2023-04-21T12:13:30.239Z,99027.44
2023-04-21T12:15:58.576Z,99029.84
2023-04-21T12:18:32.174Z,99027.49
2023-04-21T12:21:03.238Z,99030.79
2023-04-21T12:23:31.820Z,99026.05
2023-04-21T12:26:01.641Z,99027.67
2023-04-21T12:28:30.380Z,99030.59
2023-04-21T12:30:58.757Z,99032.37
2023-04-21T12:33:27.487Z,99038.09
2023-04-21T12:35:56.524Z,99037.04
2023-04-21T12:38:25.057Z,99033.70
2023-04-21T12:40:53.640Z,99032.73
2023-04-21T12:43:22.961Z,99036.61
2023-04-21T12:45:52.976Z,99035.74
2023-04-21T12:48:22.081Z,99035.11
2023-04-21T12:50:50.448Z,99040.20
2023-04-21T12:53:18.933Z,99034.27
2023-04-21T12:56:01.044Z,99031.89
2023-04-21T12:58:33.457Z,99028.02
2023-04-21T13:01:02.112Z,99024.30
2023-04-21T13:03:30.922Z,99028.38
2023-04-21T13:05:59.360Z,99028.60
2023-04-21T13:08:27.832Z,99030.06
2023-04-21T13:10:56.257Z,99029.14
2023-04-21T13:13:24.811Z,99023.14
2023-04-21T13:15:53.239Z,99025.78
2023-04-21T13:18:22.222Z,99028.48
2023-04-21T13:20:50.637Z,99029.89
2023-04-21T13:23:19.169Z,99025.17
2023-04-21T13:25:47.872Z,99027.05
2023-04-21T13:28:16.726Z,99027.48
2023-04-21T13:30:45.423Z,99025.44
2023-04-21T13:33:14.178Z,99024.90
2023-04-21T13:35:42.738Z,99024.80
2023-04-21T13:38:12.052Z,99021.29
2023-04-21T13:40:40.553Z,99017.36
2023-04-21T13:43:09.496Z,99016.34
2023-04-21T13:45:39.170Z,99018.30
2023-04-21T13:48:07.681Z,99015.08
2023-04-21T13:50:36.085Z,99014.81
2023-04-21T13:53:04.468Z,99012.02
2023-04-21T13:55:34.225Z,99013.30
2023-04-21T13:58:02.748Z,99011.23
2023-04-21T14:00:31.136Z,99006.28
2023-04-21T14:02:59.704Z,99005.25
2023-04-21T14:05:28.781Z,99004.54
2023-04-21T14:07:57.228Z,99009.15
2023-04-21T14:10:25.535Z,99009.65
2023-04-21T14:12:53.923Z,99008.20
2023-04-21T14:15:22.376Z,99009.98
2023-04-21T14:17:51.048Z,99014.65
2023-04-21T14:20:20.131Z,99014.78
2023-04-21T14:22:48.563Z,99014.92
2023-04-21T14:25:16.994Z,99019.48
2023-04-21T14:27:45.403Z,99023.09
2023-04-21T14:30:15.671Z,99022.06
2023-04-21T14:32:45.866Z,99017.95
2023-04-21T14:35:14.671Z,99019.73
2023-04-21T14:37:43.304Z,99021.31
2023-04-21T14:40:11.815Z,99027.98
2023-04-21T14:42:41.798Z,99027.42
2023-04-21T14:45:10.836Z,99028.95
2023-04-21T14:47:39.518Z,99032.94
2023-04-21T14:50:08.517Z,99035.38
2023-04-21T14:52:37.078Z,99031.73
2023-04-21T14:55:06.165Z,99031.02
2023-04-21T14:57:34.804Z,99033.95
2023-04-21T15:00:03.354Z,99031.13
2023-04-21T15:02:32.784Z,99032.94
2023-04-21T15:05:02.390Z,99033.16
2023-04-21T15:07:31.179Z,99034.45
2023-04-21T15:09:59.788Z,99033.25
2023-04-21T15:12:28.296Z,99035.66
2023-04-21T15:14:56.578Z,99034.86
2023-04-21T15:17:25.574Z,99041.48
2023-04-21T15:19:53.978Z,99043.60
2023-04-21T15:22:22.417Z,99044.56
2023-04-21T15:24:52.399Z,99045.89
2023-04-21T15:27:23.363Z,99046.66
2023-04-21T15:29:51.876Z,99045.82
2023-04-21T15:32:20.665Z,99049.89
2023-04-21T15:34:49.402Z,99046.49
2023-04-21T15:37:17.987Z,99044.84
2023-04-21T15:39:46.242Z,99048.27
2023-04-21T15:42:14.875Z,99047.77
2023-04-21T15:44:43.236Z,99048.73
2023-04-21T15:47:11.603Z,99053.94
2023-04-21T15:49:39.929Z,99047.70
2023-04-21T15:52:08.580Z,99045.95
2023-04-21T15:54:37.943Z,99044.67
2023-04-21T15:57:06.493Z,99045.65
2023-04-21T15:59:35.156Z,99044.32
2023-04-21T16:02:04.116Z,99045.77
2023-04-21T16:04:33.084Z,99046.53
2023-04-21T16:07:01.606Z,99049.33
2023-04-21T16:09:30.068Z,99046.27
2023-04-21T16:11:58.512Z,99047.14
2023-04-21T16:14:27.007Z,99052.02
2023-04-21T16:16:56.623Z,99047.65
2023-04-21T16:19:25.560Z,99050.81
2023-04-21T16:21:55.307Z,99047.97
2023-04-21T16:24:24.086Z,99049.73
2023-04-21T16:26:52.701Z,99048.35
2023-04-21T16:29:21.167Z,99048.29
2023-04-21T16:31:49.652Z,99046.84
2023-04-21T16:34:17.984Z,99048.27
2023-04-21T16:36:46.361Z,99049.40
2023-04-21T16:39:14.872Z,99045.83
2023-04-21T16:41:43.279Z,99049.41
2023-04-21T16:44:11.707Z,99052.86
2023-04-21T16:46:40.998Z,99054.16
2023-04-21T16:49:09.615Z,99052.21
2023-04-21T16:51:40.348Z,99054.81
2023-04-21T16:54:08.700Z,99059.52
2023-04-21T16:56:37.517Z,99059.81
2023-04-21T16:59:09.253Z,99058.63
2023-04-21T17:01:37.950Z,99061.02
2023-04-21T17:04:06.570Z,99059.70
2023-04-21T17:06:35.135Z,99071.36
2023-04-21T17:09:03.598Z,99073.17
2023-04-21T17:11:32.878Z,99072.91
2023-04-21T17:14:01.810Z,99078.50
2023-04-21T17:16:30.315Z,99079.94
2023-04-21T17:18:58.689Z,99081.34
2023-04-21T17:21:28.752Z,99082.83
2023-04-21T17:23:57.218Z,99084.39
2023-04-21T17:26:26.027Z,99086.48
2023-04-21T17:28:54.399Z,99087.23
2023-04-21T17:31:22.949Z,99088.23
2023-04-21T17:33:53.450Z,99086.00
2023-04-21T17:36:21.731Z,99086.79
2023-04-21T17:38:50.192Z,99085.55
2023-04-21T17:41:18.758Z,99087.86
2023-04-21T17:43:47.312Z,99084.41
2023-04-21T17:46:15.730Z,99084.60
2023-04-21T17:48:44.171Z,99090.20
2023-04-21T17:51:14.258Z,99091.84
2023-04-21T17:53:42.717Z,99090.88
2023-04-21T17:56:11.768Z,99092.59
2023-04-21T17:58:41.679Z,99100.20
2023-04-21T18:01:10.274Z,99097.30
2023-04-21T18:03:41.634Z,99099.08
2023-04-21T18:06:11.517Z,99097.47
2023-04-21T18:08:41.314Z,99094.79
2023-04-21T18:11:09.735Z,99096.09
2023-04-21T18:13:37.998Z,99092.48
2023-04-21T18:16:06.988Z,99091.38
2023-04-21T18:18:35.464Z,99090.56
2023-04-21T18:21:04.428Z,99087.53
2023-04-21T18:23:32.914Z,99082.73
2023-04-21T18:26:02.355Z,99083.48
2023-04-21T18:28:32.056Z,99084.30
2023-04-21T18:31:01.091Z,99080.16
2023-04-21T18:33:29.836Z,99083.28
2023-04-21T18:35:58.467Z,99080.04
2023-04-21T18:38:26.885Z,99076.64
2023-04-21T18:40:55.886Z,99075.46
2023-04-21T18:43:24.439Z,99073.73
2023-04-21T18:45:53.174Z,99076.27
2023-04-21T18:48:21.492Z,99076.98
2023-04-21T18:50:49.801Z,99077.75
2023-04-21T18:53:18.047Z,99077.09
2023-04-21T18:55:46.449Z,99076.06
2023-04-21T18:58:15.258Z,99072.45
2023-04-21T19:00:44.637Z,99073.50
2023-04-21T19:03:13.200Z,99065.30
2023-04-21T19:05:42.347Z,99064.95
2023-04-21T19:08:10.867Z,99064.90
2023-04-21T19:10:40.972Z,99064.58
2023-04-21T19:13:09.519Z,99065.88
2023-04-21T19:15:39.009Z,99062.80
2023-04-21T19:18:07.885Z,99065.21
2023-04-21T19:20:37.677Z,99063.89
2023-04-21T19:23:06.078Z,99064.13
2023-04-21T19:25:35.859Z,99064.64
2023-04-21T19:28:04.529Z,99064.79
2023-04-21T19:30:33.056Z,99066.80
2023-04-21T19:33:01.441Z,99063.95
2023-04-21T19:35:29.862Z,99066.95
2023-04-21T19:37:59.344Z,99060.48
2023-04-21T19:40:27.642Z,99062.58
2023-04-21T19:42:58.677Z,99061.77
2023-04-21T19:45:26.969Z,99061.52
2023-04-21T19:47:55.396Z,99067.15
2023-04-21T19:50:23.854Z,99067.39
2023-04-21T19:52:52.117Z,99064.18
2023-04-21T19:55:20.747Z,99060.45
2023-04-21T19:57:49.175Z,99060.48
2023-04-21T20:00:17.769Z,99057.95
2023-04-21T20:02:46.415Z,99058.31
2023-04-21T20:05:15.042Z,99059.95
2023-04-21T20:07:44.392Z,99056.86
2023-04-21T20:10:13.983Z,99059.46
2023-04-21T20:12:42.375Z,99055.96
2023-04-21T20:15:12.194Z,99060.50
2023-04-21T20:17:42.101Z,99059.43
2023-04-21T20:20:11.175Z,99061.60
2023-04-21T20:22:39.960Z,99061.38
2023-04-21T20:25:08.937Z,99065.55
2023-04-21T20:27:37.514Z,99066.39
2023-04-21T20:30:08.097Z,99064.08
2023-04-21T20:32:37.191Z,99061.84
2023-04-21T20:35:08.014Z,99061.34
2023-04-21T20:37:37.014Z,99055.51
2023-04-21T20:40:08.582Z,99056.58
2023-04-21T20:42:38.587Z,99051.63
2023-04-21T20:45:07.591Z,99050.87
2023-04-21T20:47:37.025Z,99047.15
2023-04-21T20:50:06.176Z,99045.47
2023-04-21T20:52:35.199Z,99045.64
2023-04-21T20:55:03.539Z,99042.63
2023-04-21T20:57:33.142Z,99041.07
2023-04-21T21:00:02.133Z,99039.71
2023-04-21T21:02:31.308Z,99037.58
2023-04-21T21:04:59.746Z,99038.70
2023-04-21T21:07:28.150Z,99039.25
2023-04-21T21:09:56.720Z,99037.89
2023-04-21T21:12:25.677Z,99034.05
2023-04-21T21:14:54.161Z,99039.16
2023-04-21T21:17:22.949Z,99032.70
2023-04-21T21:19:51.463Z,99031.15
2023-04-21T21:22:20.039Z,99033.80
2023-04-21T21:24:50.560Z,99034.05
2023-04-21T21:27:19.196Z,99029.58
2023-04-21T21:29:47.600Z,99033.10
2023-04-21T21:32:16.368Z,99036.72
2023-04-21T21:34:44.773Z,99035.95
2023-04-21T21:37:13.153Z,99038.98
2023-04-21T21:39:41.590Z,99043.77
2023-04-21T21:42:11.614Z,99046.88
2023-04-21T21:44:39.989Z,99049.44
2023-04-21T21:47:08.451Z,99052.33
2023-04-21T21:49:38.623Z,99055.92
2023-04-21T21:52:07.400Z,99056.33
2023-04-21T21:54:35.788Z,99061.29
2023-04-21T21:57:04.424Z,99061.95
2023-04-21T21:59:33.632Z,99059.73
2023-04-21T22:02:02.689Z,99061.39
2023-04-21T22:04:32.359Z,99061.66
2023-04-21T22:07:00.848Z,99062.96
2023-04-21T22:09:29.256Z,99067.52
2023-04-21T22:11:57.695Z,99065.69
2023-04-21T22:14:26.098Z,99064.12
2023-04-21T22:16:54.492Z,99066.58
2023-04-21T22:19:23.639Z,99061.35
2023-04-21T22:21:52.468Z,99060.08
2023-04-21T22:24:21.154Z,99060.62
2023-04-21T22:26:49.399Z,99059.23
2023-04-21T22:29:17.717Z,99061.86
2023-04-21T22:31:46.362Z,99061.57
2023-04-21T22:34:19.760Z,99063.39
2023-04-21T22:36:48.088Z,99062.00
2023-04-21T22:39:17.108Z,99066.52
2023-04-21T22:41:46.144Z,99066.41
2023-04-21T22:44:14.673Z,99064.89
2023-04-21T22:46:43.091Z,99065.88
2023-04-21T22:49:11.447Z,99069.10
2023-04-21T22:51:40.526Z,99065.92
2023-04-21T22:54:08.841Z,99063.77
2023-04-21T22:56:37.252Z,99062.36
2023-04-21T22:59:06.044Z,99064.19
2023-04-21T23:01:34.706Z,99065.70
2023-04-21T23:04:03.462Z,99063.96
2023-04-21T23:06:33.042Z,99068.52
2023-04-21T23:09:01.430Z,99068.27
2023-04-21T23:11:30.553Z,99072.74
2023-04-21T23:13:58.875Z,99068.42
2023-04-21T23:16:27.171Z,99069.94
2023-04-21T23:18:55.505Z,99073.72
2023-04-21T23:21:24.194Z,99072.92
2023-04-21T23:23:52.638Z,99069.07
2023-04-21T23:26:22.022Z,99071.29
2023-04-21T23:28:50.409Z,99072.78
2023-04-21T23:31:18.941Z,99072.27
2023-04-21T23:33:47.418Z,99072.79
2023-04-21T23:36:15.742Z,99069.70
2023-04-21T23:38:44.063Z,99067.08
2023-04-21T23:41:12.407Z,99063.75
2023-04-21T23:43:40.908Z,99062.90
2023-04-21T23:46:09.281Z,99064.28
2023-04-21T23:48:37.966Z,99066.88
2023-04-21T23:51:06.803Z,99068.70
2023-04-21T23:53:35.762Z,99068.79
2023-04-21T23:56:04.367Z,99069.60
2023-04-21T23:58:32.769Z,99071.30
